Addy, WA (99101)

12:01 PM PST on February 08, 2016 (GMT -0800)
APRSWXNET | | Change Station
CLOSE
Current Station
Personal Weather Station
Location: Rice, WA
Elevation: 2851 ft
Nearby Weather Stations

Elev 2851 ft 48.47 °N, 118.10 °W | Updated 23 minutes ago

Clear
Clear
39 °F
Feels Like 39 °F
N
0
Wind Variable Wind from NNE
Gusts 0.0 mph

Today
High -- | Low -- °F
--% Chance of Precip.
Yesterday
High -- | Low -- °F
Precip. -- in
Pressure 30.66 in
Visibility 10.0 miles
Clouds Clear
Windchill 39 °F
Dew Point 33 °F
Humidity 79%
Rainfall in
Snow Depth Not available.
7:10 AM 5:01 PM
New Moon, 0% visible
METAR KDEW 081953Z AUTO 06003KT 10SM CLR 07/M01 A3060 RMK AO2 SLP381 T00721011 TSNO
Pressure 30.66 in
Visibility 10.0 miles
Clouds Clear
Windchill 39 °F
Dew Point 33 °F
Humidity 79%
Rainfall in
Snow Depth Not available.
7:10 AM 5:01 PM
New Moon, 0% visible
METAR KDEW 081953Z AUTO 06003KT 10SM CLR 07/M01 A3060 RMK AO2 SLP381 T00721011 TSNO

10-Day Weather Forecast

Almanac

Astronomy

Feb. 08, 2016 Rise Set
Actual Time
Civil Twilight
Nautical Twilight
Astronomical Twilight
Moon
Length of Visible Light
Length of Day
Tomorrow will be .
, % of the Moon is Illuminated

Today's Extremes

State Highs State Lows

Community

WunderPhotos

Upload Photos

1,891,503 photos uploaded!

WunderBlog® & News

Nearby

Air Quality

  Air Quality AQ Index Pollutant
Not available.

Snow Depth

Station Depth Elevation

Earthquake Activity

City Distance Mag. Time & Date
Minimum magnitude displayed is 2.5.

Coastal Water Temperatures

Place Temperature

Stations

Nearby Weather Stations

Station Location Temp. Windchill Dew Point Humidity Wind Precip. Elev Updated Type
                   

Watches & Warnings

There are currently no watches in effect.